sensor_id;sensor_type;location;lat;lon;timestamp;P1;durP1;ratioP1;P2;durP2;ratioP2
14890;SDS011;7537;48.014;11.590;2022-07-04T00:00:45;2.24;;;2.21;;
14890;SDS011;7537;48.014;11.590;2022-07-04T00:06:12;2.82;;;2.96;;
14890;SDS011;7537;48.014;11.590;2022-07-04T00:11:47;2.19;;;2.32;;
14890;SDS011;7537;48.014;11.590;2022-07-04T00:17:15;2.16;;;2.29;;
14890;SDS011;7537;48.014;11.590;2022-07-04T00:22:42;2.79;;;2.59;;
14890;SDS011;7537;48.014;11.590;2022-07-04T00:28:10;3.36;;;1.80;;
14890;SDS011;7537;48.014;11.590;2022-07-04T00:33:39;2.39;;;1.75;;
14890;SDS011;7537;48.014;11.590;2022-07-04T00:39:06;6.16;;;3.00;;
14890;SDS011;7537;48.014;11.590;2022-07-04T00:44:34;2.12;;;1.97;;
14890;SDS011;7537;48.014;11.590;2022-07-04T00:50:01;1.87;;;1.97;;
14890;SDS011;7537;48.014;11.590;2022-07-04T00:55:29;2.76;;;1.97;;
14890;SDS011;7537;48.014;11.590;2022-07-04T01:00:56;2.39;;;2.13;;
14890;SDS011;7537;48.014;11.590;2022-07-04T01:06:24;2.03;;;1.79;;
14890;SDS011;7537;48.014;11.590;2022-07-04T01:11:56;2.27;;;2.34;;
14890;SDS011;7537;48.014;11.590;2022-07-04T01:17:24;1.87;;;2.01;;
14890;SDS011;7537;48.014;11.590;2022-07-04T01:22:51;2.29;;;2.38;;
14890;SDS011;7537;48.014;11.590;2022-07-04T01:28:18;2.11;;;2.21;;
14890;SDS011;7537;48.014;11.590;2022-07-04T01:33:46;1.86;;;2.07;;
14890;SDS011;7537;48.014;11.590;2022-07-04T01:39:13;1.99;;;2.11;;
14890;SDS011;7537;48.014;11.590;2022-07-04T01:44:42;2.12;;;2.16;;
14890;SDS011;7537;48.014;11.590;2022-07-04T01:50:09;3.47;;;2.28;;
14890;SDS011;7537;48.014;11.590;2022-07-04T01:55:37;1.96;;;1.98;;
14890;SDS011;7537;48.014;11.590;2022-07-04T02:01:04;4.16;;;1.64;;
14890;SDS011;7537;48.014;11.590;2022-07-04T02:06:32;1.40;;;1.51;;
14890;SDS011;7537;48.014;11.590;2022-07-04T02:12:04;2.30;;;2.12;;
14890;SDS011;7537;48.014;11.590;2022-07-04T02:17:35;3.39;;;2.07;;
14890;SDS011;7537;48.014;11.590;2022-07-04T02:23:03;3.48;;;2.07;;
14890;SDS011;7537;48.014;11.590;2022-07-04T02:28:31;3.56;;;2.23;;
14890;SDS011;7537;48.014;11.590;2022-07-04T02:33:59;1.71;;;1.81;;
14890;SDS011;7537;48.014;11.590;2022-07-04T02:39:26;2.32;;;1.76;;
14890;SDS011;7537;48.014;11.590;2022-07-04T02:44:53;2.44;;;2.21;;
14890;SDS011;7537;48.014;11.590;2022-07-04T02:50:22;2.90;;;1.71;;
14890;SDS011;7537;48.014;11.590;2022-07-04T02:55:50;2.08;;;2.18;;
14890;SDS011;7537;48.014;11.590;2022-07-04T03:01:17;1.48;;;1.59;;
14890;SDS011;7537;48.014;11.590;2022-07-04T03:06:45;2.90;;;2.08;;
14890;SDS011;7537;48.014;11.590;2022-07-04T03:12:15;2.06;;;2.22;;
14890;SDS011;7537;48.014;11.590;2022-07-04T03:17:43;1.79;;;1.93;;
14890;SDS011;7537;48.014;11.590;2022-07-04T03:23:11;2.48;;;1.81;;
14890;SDS011;7537;48.014;11.590;2022-07-04T03:28:39;1.55;;;1.62;;
14890;SDS011;7537;48.014;11.590;2022-07-04T03:34:06;1.93;;;1.98;;
14890;SDS011;7537;48.014;11.590;2022-07-04T03:39:34;2.46;;;2.51;;
14890;SDS011;7537;48.014;11.590;2022-07-04T03:45:01;2.21;;;2.38;;
14890;SDS011;7537;48.014;11.590;2022-07-04T03:50:28;2.01;;;2.14;;
14890;SDS011;7537;48.014;11.590;2022-07-04T03:55:57;3.11;;;2.49;;
14890;SDS011;7537;48.014;11.590;2022-07-04T04:01:24;3.53;;;2.03;;
14890;SDS011;7537;48.014;11.590;2022-07-04T04:06:52;2.14;;;2.26;;
14890;SDS011;7537;48.014;11.590;2022-07-04T04:12:22;2.07;;;2.22;;
14890;SDS011;7537;48.014;11.590;2022-07-04T04:17:50;3.21;;;2.78;;
14890;SDS011;7537;48.014;11.590;2022-07-04T04:23:17;2.86;;;2.43;;
14890;SDS011;7537;48.014;11.590;2022-07-04T04:28:46;1.96;;;2.13;;
14890;SDS011;7537;48.014;11.590;2022-07-04T04:34:13;2.21;;;2.30;;
14890;SDS011;7537;48.014;11.590;2022-07-04T04:39:40;2.34;;;2.38;;
14890;SDS011;7537;48.014;11.590;2022-07-04T04:45:08;2.18;;;2.28;;
14890;SDS011;7537;48.014;11.590;2022-07-04T04:50:36;5.01;;;3.28;;
14890;SDS011;7537;48.014;11.590;2022-07-04T04:56:03;2.92;;;2.64;;
14890;SDS011;7537;48.014;11.590;2022-07-04T05:01:32;4.01;;;2.79;;
14890;SDS011;7537;48.014;11.590;2022-07-04T05:06:59;3.77;;;2.75;;
14890;SDS011;7537;48.014;11.590;2022-07-04T05:12:30;3.06;;;2.12;;
14890;SDS011;7537;48.014;11.590;2022-07-04T05:17:57;2.96;;;2.61;;
14890;SDS011;7537;48.014;11.590;2022-07-04T05:23:25;2.11;;;2.26;;
14890;SDS011;7537;48.014;11.590;2022-07-04T05:28:52;2.35;;;2.50;;
14890;SDS011;7537;48.014;11.590;2022-07-04T05:34:21;2.44;;;2.51;;
14890;SDS011;7537;48.014;11.590;2022-07-04T05:39:48;2.01;;;2.14;;
14890;SDS011;7537;48.014;11.590;2022-07-04T05:45:15;1.34;;;1.49;;
14890;SDS011;7537;48.014;11.590;2022-07-04T05:50:43;1.99;;;2.08;;
14890;SDS011;7537;48.014;11.590;2022-07-04T05:56:10;2.13;;;2.18;;
14890;SDS011;7537;48.014;11.590;2022-07-04T06:01:37;2.21;;;2.35;;
14890;SDS011;7537;48.014;11.590;2022-07-04T06:07:06;2.21;;;2.26;;
14890;SDS011;7537;48.014;11.590;2022-07-04T06:12:37;2.35;;;2.41;;
14890;SDS011;7537;48.014;11.590;2022-07-04T06:18:04;5.27;;;2.17;;
14890;SDS011;7537;48.014;11.590;2022-07-04T06:23:31;2.62;;;2.64;;
14890;SDS011;7537;48.014;11.590;2022-07-04T06:28:58;1.24;;;1.40;;
14890;SDS011;7537;48.014;11.590;2022-07-04T06:34:26;1.92;;;1.64;;
14890;SDS011;7537;48.014;11.590;2022-07-04T06:39:50;2.28;;;1.95;;
14890;SDS011;7537;48.014;11.590;2022-07-04T06:45:32;1.16;;;1.31;;
14890;SDS011;7537;48.014;11.590;2022-07-04T06:51:01;1.65;;;1.77;;
14890;SDS011;7537;48.014;11.590;2022-07-04T06:56:28;3.54;;;1.67;;
14890;SDS011;7537;48.014;11.590;2022-07-04T07:01:55;1.44;;;1.51;;
14890;SDS011;7537;48.014;11.590;2022-07-04T07:07:23;1.37;;;1.46;;
14890;SDS011;7537;48.014;11.590;2022-07-04T07:12:51;1.39;;;1.51;;
14890;SDS011;7537;48.014;11.590;2022-07-04T07:24:54;1.69;;;1.81;;
14890;SDS011;7537;48.014;11.590;2022-07-04T07:30:22;1.64;;;1.64;;
14890;SDS011;7537;48.014;11.590;2022-07-04T07:35:50;1.99;;;1.68;;
14890;SDS011;7537;48.014;11.590;2022-07-04T07:41:27;2.89;;;2.33;;
14890;SDS011;7537;48.014;11.590;2022-07-04T07:47:06;2.12;;;2.26;;
14890;SDS011;7537;48.014;11.590;2022-07-04T07:52:33;3.66;;;2.42;;
14890;SDS011;7537;48.014;11.590;2022-07-04T07:58:02;2.22;;;2.25;;
14890;SDS011;7537;48.014;11.590;2022-07-04T08:03:33;2.59;;;2.17;;
14890;SDS011;7537;48.014;11.590;2022-07-04T08:09:25;3.01;;;2.19;;
14890;SDS011;7537;48.014;11.590;2022-07-04T08:15:09;2.05;;;1.94;;
14890;SDS011;7537;48.014;11.590;2022-07-04T08:20:37;2.44;;;2.06;;
14890;SDS011;7537;48.014;11.590;2022-07-04T08:26:04;3.95;;;2.13;;
14890;SDS011;7537;48.014;11.590;2022-07-04T08:31:31;1.87;;;1.98;;
14890;SDS011;7537;48.014;11.590;2022-07-04T08:37:00;1.56;;;1.59;;
14890;SDS011;7537;48.014;11.590;2022-07-04T08:42:27;3.31;;;2.23;;
14890;SDS011;7537;48.014;11.590;2022-07-04T08:47:58;1.49;;;1.63;;
14890;SDS011;7537;48.014;11.590;2022-07-04T08:53:27;1.86;;;1.98;;
14890;SDS011;7537;48.014;11.590;2022-07-04T08:58:55;1.69;;;1.71;;
14890;SDS011;7537;48.014;11.590;2022-07-04T09:04:23;1.57;;;1.51;;
14890;SDS011;7537;48.014;11.590;2022-07-04T09:09:56;1.27;;;1.41;;
14890;SDS011;7537;48.014;11.590;2022-07-04T09:15:25;1.69;;;1.86;;
14890;SDS011;7537;48.014;11.590;2022-07-04T09:20:53;1.79;;;1.86;;
14890;SDS011;7537;48.014;11.590;2022-07-04T09:26:21;2.13;;;1.45;;
14890;SDS011;7537;48.014;11.590;2022-07-04T09:31:49;2.59;;;1.37;;
14890;SDS011;7537;48.014;11.590;2022-07-04T09:37:16;1.50;;;0.92;;
14890;SDS011;7537;48.014;11.590;2022-07-04T09:42:43;2.31;;;1.28;;
14890;SDS011;7537;48.014;11.590;2022-07-04T09:48:10;1.94;;;1.77;;
14890;SDS011;7537;48.014;11.590;2022-07-04T09:53:39;1.71;;;1.53;;
14890;SDS011;7537;48.014;11.590;2022-07-04T09:59:07;1.08;;;1.08;;
14890;SDS011;7537;48.014;11.590;2022-07-04T10:04:44;1.27;;;1.30;;
14890;SDS011;7537;48.014;11.590;2022-07-04T10:16:07;1.21;;;1.25;;
14890;SDS011;7537;48.014;11.590;2022-07-04T10:21:34;1.39;;;1.43;;
14890;SDS011;7537;48.014;11.590;2022-07-04T10:27:01;1.31;;;1.29;;
14890;SDS011;7537;48.014;11.590;2022-07-04T10:32:30;1.18;;;1.27;;
14890;SDS011;7537;48.014;11.590;2022-07-04T10:37:59;1.85;;;1.36;;
14890;SDS011;7537;48.014;11.590;2022-07-04T10:49:30;1.17;;;1.29;;
14890;SDS011;7537;48.014;11.590;2022-07-04T10:54:58;1.62;;;1.33;;
14890;SDS011;7537;48.014;11.590;2022-07-04T11:00:37;1.41;;;1.37;;
14890;SDS011;7537;48.014;11.590;2022-07-04T11:06:04;1.57;;;1.59;;
14890;SDS011;7537;48.014;11.590;2022-07-04T11:12:10;1.28;;;1.44;;
14890;SDS011;7537;48.014;11.590;2022-07-04T11:17:38;4.16;;;1.26;;
14890;SDS011;7537;48.014;11.590;2022-07-04T11:23:28;1.36;;;1.27;;
14890;SDS011;7537;48.014;11.590;2022-07-04T11:28:57;1.99;;;1.43;;
14890;SDS011;7537;48.014;11.590;2022-07-04T11:34:24;1.16;;;1.22;;
14890;SDS011;7537;48.014;11.590;2022-07-04T11:39:52;1.12;;;1.23;;
14890;SDS011;7537;48.014;11.590;2022-07-04T11:45:21;1.62;;;1.69;;
14890;SDS011;7537;48.014;11.590;2022-07-04T11:50:49;3.74;;;1.59;;
14890;SDS011;7537;48.014;11.590;2022-07-04T11:56:16;3.47;;;1.11;;
14890;SDS011;7537;48.014;11.590;2022-07-04T12:01:46;1.28;;;1.33;;
14890;SDS011;7537;48.014;11.590;2022-07-04T12:07:14;2.25;;;1.57;;
14890;SDS011;7537;48.014;11.590;2022-07-04T12:12:51;1.38;;;1.19;;
14890;SDS011;7537;48.014;11.590;2022-07-04T12:18:19;0.81;;;0.90;;
14890;SDS011;7537;48.014;11.590;2022-07-04T12:23:51;3.54;;;1.36;;
14890;SDS011;7537;48.014;11.590;2022-07-04T12:29:22;3.79;;;1.36;;
14890;SDS011;7537;48.014;11.590;2022-07-04T12:34:49;1.34;;;1.43;;
14890;SDS011;7537;48.014;11.590;2022-07-04T12:40:31;1.43;;;1.30;;
14890;SDS011;7537;48.014;11.590;2022-07-04T12:45:59;1.41;;;1.44;;
14890;SDS011;7537;48.014;11.590;2022-07-04T12:51:27;2.11;;;1.73;;
14890;SDS011;7537;48.014;11.590;2022-07-04T12:57:01;1.63;;;1.59;;
14890;SDS011;7537;48.014;11.590;2022-07-04T13:02:45;1.60;;;1.57;;
14890;SDS011;7537;48.014;11.590;2022-07-04T13:08:12;2.33;;;1.61;;
14890;SDS011;7537;48.014;11.590;2022-07-04T13:13:39;1.54;;;1.64;;
14890;SDS011;7537;48.014;11.590;2022-07-04T13:19:07;1.17;;;1.20;;
14890;SDS011;7537;48.014;11.590;2022-07-04T13:24:39;1.16;;;1.23;;
14890;SDS011;7537;48.014;11.590;2022-07-04T13:31:23;1.21;;;1.26;;
14890;SDS011;7537;48.014;11.590;2022-07-04T13:36:50;1.09;;;1.22;;
14890;SDS011;7537;48.014;11.590;2022-07-04T13:42:27;1.02;;;1.08;;
14890;SDS011;7537;48.014;11.590;2022-07-04T13:47:54;1.05;;;1.18;;
14890;SDS011;7537;48.014;11.590;2022-07-04T13:53:22;2.67;;;1.61;;
14890;SDS011;7537;48.014;11.590;2022-07-04T13:58:50;1.69;;;1.39;;
14890;SDS011;7537;48.014;11.590;2022-07-04T14:04:17;1.42;;;1.32;;
14890;SDS011;7537;48.014;11.590;2022-07-04T14:09:45;1.26;;;1.31;;
14890;SDS011;7537;48.014;11.590;2022-07-04T14:15:12;1.76;;;1.28;;
14890;SDS011;7537;48.014;11.590;2022-07-04T14:20:39;3.21;;;1.19;;
14890;SDS011;7537;48.014;11.590;2022-07-04T14:26:07;1.11;;;1.21;;
14890;SDS011;7537;48.014;11.590;2022-07-04T14:31:39;2.83;;;1.32;;
14890;SDS011;7537;48.014;11.590;2022-07-04T14:37:07;1.44;;;1.07;;
14890;SDS011;7537;48.014;11.590;2022-07-04T14:42:34;1.21;;;1.31;;
14890;SDS011;7537;48.014;11.590;2022-07-04T14:48:02;1.73;;;1.66;;
14890;SDS011;7537;48.014;11.590;2022-07-04T14:53:30;1.42;;;1.54;;
14890;SDS011;7537;48.014;11.590;2022-07-04T14:58:57;1.14;;;1.17;;
14890;SDS011;7537;48.014;11.590;2022-07-04T15:04:26;4.51;;;1.64;;
14890;SDS011;7537;48.014;11.590;2022-07-04T15:09:53;1.13;;;1.26;;
14890;SDS011;7537;48.014;11.590;2022-07-04T15:15:21;1.42;;;1.53;;
14890;SDS011;7537;48.014;11.590;2022-07-04T15:20:48;1.09;;;1.22;;
14890;SDS011;7537;48.014;11.590;2022-07-04T15:26:15;1.41;;;1.28;;
14890;SDS011;7537;48.014;11.590;2022-07-04T15:31:46;1.45;;;1.26;;
14890;SDS011;7537;48.014;11.590;2022-07-04T15:37:13;2.01;;;1.29;;
14890;SDS011;7537;48.014;11.590;2022-07-04T15:42:42;1.56;;;1.50;;
14890;SDS011;7537;48.014;11.590;2022-07-04T15:48:09;2.97;;;1.78;;
14890;SDS011;7537;48.014;11.590;2022-07-04T15:53:36;1.89;;;1.31;;
14890;SDS011;7537;48.014;11.590;2022-07-04T15:59:04;2.15;;;1.68;;
14890;SDS011;7537;48.014;11.590;2022-07-04T16:04:31;1.48;;;1.23;;
14890;SDS011;7537;48.014;11.590;2022-07-04T16:09:58;1.22;;;1.37;;
14890;SDS011;7537;48.014;11.590;2022-07-04T16:15:26;0.98;;;1.08;;
14890;SDS011;7537;48.014;11.590;2022-07-04T16:20:55;1.81;;;1.57;;
14890;SDS011;7537;48.014;11.590;2022-07-04T16:26:31;1.70;;;1.77;;
14890;SDS011;7537;48.014;11.590;2022-07-04T16:32:02;2.60;;;1.91;;
14890;SDS011;7537;48.014;11.590;2022-07-04T16:37:30;1.35;;;1.42;;
14890;SDS011;7537;48.014;11.590;2022-07-04T16:42:57;2.49;;;1.41;;
14890;SDS011;7537;48.014;11.590;2022-07-04T16:48:24;1.16;;;1.30;;
14890;SDS011;7537;48.014;11.590;2022-07-04T16:53:52;1.44;;;1.51;;
14890;SDS011;7537;48.014;11.590;2022-07-04T16:59:20;2.69;;;1.88;;
14890;SDS011;7537;48.014;11.590;2022-07-04T17:04:48;1.50;;;1.58;;
14890;SDS011;7537;48.014;11.590;2022-07-04T17:10:15;1.47;;;1.57;;
14890;SDS011;7537;48.014;11.590;2022-07-04T17:15:42;3.38;;;1.70;;
14890;SDS011;7537;48.014;11.590;2022-07-04T17:21:10;3.39;;;1.72;;
14890;SDS011;7537;48.014;11.590;2022-07-04T17:26:37;1.76;;;1.56;;
14890;SDS011;7537;48.014;11.590;2022-07-04T17:32:10;1.50;;;1.57;;
14890;SDS011;7537;48.014;11.590;2022-07-04T17:37:37;2.02;;;2.17;;
14890;SDS011;7537;48.014;11.590;2022-07-04T17:43:04;1.39;;;1.51;;
14890;SDS011;7537;48.014;11.590;2022-07-04T17:48:32;1.36;;;1.51;;
14890;SDS011;7537;48.014;11.590;2022-07-04T17:53:59;1.72;;;1.56;;
14890;SDS011;7537;48.014;11.590;2022-07-04T17:59:26;2.15;;;1.67;;
14890;SDS011;7537;48.014;11.590;2022-07-04T18:04:55;1.74;;;1.66;;
14890;SDS011;7537;48.014;11.590;2022-07-04T18:10:22;3.06;;;2.26;;
14890;SDS011;7537;48.014;11.590;2022-07-04T18:15:50;1.25;;;1.43;;
14890;SDS011;7537;48.014;11.590;2022-07-04T18:21:17;2.85;;;2.01;;
14890;SDS011;7537;48.014;11.590;2022-07-04T18:26:45;2.17;;;1.98;;
14890;SDS011;7537;48.014;11.590;2022-07-04T18:32:27;2.96;;;2.18;;
14890;SDS011;7537;48.014;11.590;2022-07-04T18:37:55;1.83;;;1.89;;
14890;SDS011;7537;48.014;11.590;2022-07-04T18:43:22;3.06;;;2.15;;
14890;SDS011;7537;48.014;11.590;2022-07-04T18:48:49;2.31;;;2.37;;
14890;SDS011;7537;48.014;11.590;2022-07-04T18:54:18;4.64;;;2.43;;
14890;SDS011;7537;48.014;11.590;2022-07-04T18:59:46;3.66;;;2.55;;
14890;SDS011;7537;48.014;11.590;2022-07-04T19:05:13;2.91;;;2.37;;
14890;SDS011;7537;48.014;11.590;2022-07-04T19:10:40;4.23;;;2.30;;
14890;SDS011;7537;48.014;11.590;2022-07-04T19:16:08;4.60;;;1.74;;
14890;SDS011;7537;48.014;11.590;2022-07-04T19:21:35;2.36;;;1.34;;
14890;SDS011;7537;48.014;11.590;2022-07-04T19:27:03;2.69;;;1.87;;
14890;SDS011;7537;48.014;11.590;2022-07-04T19:32:35;1.60;;;1.37;;
14890;SDS011;7537;48.014;11.590;2022-07-04T19:38:03;3.66;;;2.12;;
14890;SDS011;7537;48.014;11.590;2022-07-04T19:43:31;2.96;;;1.76;;
14890;SDS011;7537;48.014;11.590;2022-07-04T19:48:58;3.19;;;1.95;;
14890;SDS011;7537;48.014;11.590;2022-07-04T19:54:25;1.88;;;1.73;;
14890;SDS011;7537;48.014;11.590;2022-07-04T19:59:53;3.72;;;1.36;;
14890;SDS011;7537;48.014;11.590;2022-07-04T20:05:20;2.24;;;1.66;;
14890;SDS011;7537;48.014;11.590;2022-07-04T20:10:49;1.97;;;1.66;;
14890;SDS011;7537;48.014;11.590;2022-07-04T20:16:16;1.78;;;1.19;;
14890;SDS011;7537;48.014;11.590;2022-07-04T20:21:44;4.29;;;2.11;;
14890;SDS011;7537;48.014;11.590;2022-07-04T20:27:11;1.42;;;1.51;;
14890;SDS011;7537;48.014;11.590;2022-07-04T20:32:42;1.42;;;1.31;;
14890;SDS011;7537;48.014;11.590;2022-07-04T20:38:10;1.64;;;1.54;;
14890;SDS011;7537;48.014;11.590;2022-07-04T20:43:39;2.03;;;1.93;;
14890;SDS011;7537;48.014;11.590;2022-07-04T20:49:06;2.15;;;2.03;;
14890;SDS011;7537;48.014;11.590;2022-07-04T20:54:34;1.99;;;1.65;;
14890;SDS011;7537;48.014;11.590;2022-07-04T21:00:01;2.06;;;1.95;;
14890;SDS011;7537;48.014;11.590;2022-07-04T21:05:28;2.06;;;2.17;;
14890;SDS011;7537;48.014;11.590;2022-07-04T21:10:56;2.54;;;2.02;;
14890;SDS011;7537;48.014;11.590;2022-07-04T21:16:25;2.60;;;2.03;;
14890;SDS011;7537;48.014;11.590;2022-07-04T21:21:52;2.19;;;1.82;;
14890;SDS011;7537;48.014;11.590;2022-07-04T21:27:20;2.22;;;2.18;;
14890;SDS011;7537;48.014;11.590;2022-07-04T21:32:55;1.75;;;1.91;;
14890;SDS011;7537;48.014;11.590;2022-07-04T21:38:23;3.01;;;2.71;;
14890;SDS011;7537;48.014;11.590;2022-07-04T21:43:50;3.18;;;2.42;;
14890;SDS011;7537;48.014;11.590;2022-07-04T21:49:18;2.54;;;2.61;;
14890;SDS011;7537;48.014;11.590;2022-07-04T21:54:46;2.89;;;2.39;;
14890;SDS011;7537;48.014;11.590;2022-07-04T22:00:13;3.71;;;2.38;;
14890;SDS011;7537;48.014;11.590;2022-07-04T22:05:41;2.53;;;2.57;;
14890;SDS011;7537;48.014;11.590;2022-07-04T22:11:08;2.73;;;2.89;;
14890;SDS011;7537;48.014;11.590;2022-07-04T22:16:36;1.52;;;1.68;;
14890;SDS011;7537;48.014;11.590;2022-07-04T22:22:03;4.22;;;2.71;;
14890;SDS011;7537;48.014;11.590;2022-07-04T22:27:31;3.29;;;3.28;;
14890;SDS011;7537;48.014;11.590;2022-07-04T22:33:03;2.86;;;2.87;;
14890;SDS011;7537;48.014;11.590;2022-07-04T22:38:30;3.02;;;2.81;;
14890;SDS011;7537;48.014;11.590;2022-07-04T22:43:57;4.21;;;3.08;;
14890;SDS011;7537;48.014;11.590;2022-07-04T22:49:25;3.58;;;3.08;;
14890;SDS011;7537;48.014;11.590;2022-07-04T22:54:52;5.26;;;2.67;;
14890;SDS011;7537;48.014;11.590;2022-07-04T23:00:19;4.71;;;2.98;;
14890;SDS011;7537;48.014;11.590;2022-07-04T23:05:47;2.37;;;2.51;;
14890;SDS011;7537;48.014;11.590;2022-07-04T23:11:16;2.47;;;2.45;;
14890;SDS011;7537;48.014;11.590;2022-07-04T23:16:43;2.84;;;2.64;;
14890;SDS011;7537;48.014;11.590;2022-07-04T23:22:10;2.19;;;2.34;;
14890;SDS011;7537;48.014;11.590;2022-07-04T23:27:38;2.83;;;2.59;;
14890;SDS011;7537;48.014;11.590;2022-07-04T23:33:08;3.12;;;2.55;;
14890;SDS011;7537;48.014;11.590;2022-07-04T23:38:36;4.64;;;3.90;;
14890;SDS011;7537;48.014;11.590;2022-07-04T23:44:03;6.49;;;3.33;;
14890;SDS011;7537;48.014;11.590;2022-07-04T23:49:32;3.81;;;3.08;;
14890;SDS011;7537;48.014;11.590;2022-07-04T23:54:59;2.37;;;2.57;;
